createdAt,value
2018-05-09T00:00:06.576Z,16.01
2018-05-09T00:02:36.428Z,15.96
2018-05-09T00:05:05.671Z,16.05
2018-05-09T00:07:35.601Z,16.08
2018-05-09T00:10:04.678Z,15.85
2018-05-09T00:12:34.094Z,15.76
2018-05-09T00:15:04.042Z,15.74
2018-05-09T00:17:33.587Z,15.65
2018-05-09T00:20:03.115Z,15.29
2018-05-09T00:22:33.055Z,15.11
2018-05-09T00:25:02.579Z,15.08
2018-05-09T00:27:32.115Z,15.12
2018-05-09T00:30:01.654Z,15.20
2018-05-09T00:32:31.871Z,15.03
2018-05-09T00:35:01.917Z,15.13
2018-05-09T00:37:31.494Z,15.19
2018-05-09T00:40:01.414Z,15.13
2018-05-09T00:42:31.354Z,15.14
2018-05-09T00:45:00.876Z,15.04
2018-05-09T00:47:30.421Z,15.20
2018-05-09T00:49:59.929Z,15.19
2018-05-09T00:52:29.511Z,15.21
2018-05-09T00:54:58.879Z,15.18
2018-05-09T00:57:28.402Z,15.15
2018-05-09T00:59:58.024Z,15.07
2018-05-09T01:02:27.814Z,14.97
2018-05-09T01:04:57.432Z,14.99
2018-05-09T01:07:26.122Z,14.88
2018-05-09T01:09:55.656Z,14.82
2018-05-09T01:12:25.174Z,14.92
2018-05-09T01:14:56.446Z,14.80
2018-05-09T01:17:26.454Z,14.82
2018-05-09T01:19:56.034Z,14.87
2018-05-09T01:22:25.591Z,14.67
2018-05-09T01:24:55.512Z,14.43
2018-05-09T01:27:25.035Z,14.15
2018-05-09T01:29:54.496Z,14.35
2018-05-09T01:32:24.218Z,14.44
2018-05-09T01:34:53.806Z,14.50
2018-05-09T01:37:23.320Z,14.36
2018-05-09T01:39:53.326Z,14.38
2018-05-09T01:42:23.292Z,14.23
2018-05-09T01:44:52.836Z,14.05
2018-05-09T01:47:22.381Z,14.16
2018-05-09T01:49:51.698Z,14.22
2018-05-09T01:52:21.281Z,14.17
2018-05-09T01:54:51.938Z,14.32
2018-05-09T01:57:21.571Z,14.31
2018-05-09T01:59:51.156Z,14.18
2018-05-09T02:02:20.672Z,14.15
2018-05-09T02:04:50.217Z,14.02
2018-05-09T02:07:19.746Z,13.85
2018-05-09T02:09:49.454Z,13.80
2018-05-09T02:12:19.396Z,13.74
2018-05-09T02:14:48.922Z,13.72
2018-05-09T02:17:18.220Z,13.60
2018-05-09T02:19:47.752Z,13.66
2018-05-09T02:22:17.316Z,13.37
2018-05-09T02:24:47.142Z,13.45
2018-05-09T02:27:16.722Z,13.52
2018-05-09T02:29:46.627Z,13.42
2018-05-09T02:32:16.543Z,13.39
2018-05-09T02:34:46.504Z,13.41
2018-05-09T02:37:16.495Z,13.53
2018-05-09T02:39:46.034Z,13.47
2018-05-09T02:42:15.420Z,13.54
2018-05-09T02:44:44.948Z,13.69
2018-05-09T02:47:14.463Z,13.45
2018-05-09T02:49:43.987Z,13.55
2018-05-09T02:52:13.566Z,13.50
2018-05-09T02:54:43.094Z,13.51
2018-05-09T02:57:12.613Z,13.54
2018-05-09T02:59:42.534Z,13.58
2018-05-09T03:02:12.238Z,13.64
2018-05-09T03:04:41.742Z,13.43
2018-05-09T03:07:11.251Z,13.37
2018-05-09T03:09:40.797Z,13.21
2018-05-09T03:12:10.320Z,13.15
2018-05-09T03:14:39.850Z,13.26
2018-05-09T03:17:09.425Z,13.28
2018-05-09T03:19:38.956Z,13.25
2018-05-09T03:22:08.230Z,13.16
2018-05-09T03:24:37.747Z,13.15
2018-05-09T03:27:07.279Z,13.02
2018-05-09T03:29:36.794Z,12.97
2018-05-09T03:32:06.322Z,12.91
2018-05-09T03:34:36.530Z,12.91
2018-05-09T03:37:06.157Z,12.84
2018-05-09T03:39:35.672Z,12.82
2018-05-09T03:42:05.226Z,12.90
2018-05-09T03:44:34.745Z,12.90
2018-05-09T03:47:04.273Z,12.83
2018-05-09T03:49:34.210Z,12.97
2018-05-09T03:52:03.723Z,13.00
2018-05-09T03:54:33.537Z,13.03
2018-05-09T03:57:03.099Z,12.96
2018-05-09T03:59:33.021Z,12.90
2018-05-09T04:02:19.883Z,12.89
2018-05-09T04:05:06.292Z,13.01
2018-05-09T04:10:51.122Z,12.96
2018-05-09T04:13:20.831Z,13.00
2018-05-09T04:15:50.369Z,12.96
2018-05-09T04:18:19.959Z,13.01
2018-05-09T04:20:49.538Z,12.98
2018-05-09T04:23:19.278Z,13.00
2018-05-09T04:25:49.219Z,13.14
2018-05-09T04:28:18.807Z,13.25
2018-05-09T04:30:48.358Z,13.27
2018-05-09T04:33:17.908Z,13.19
2018-05-09T04:35:47.863Z,13.19
2018-05-09T04:38:17.417Z,13.26
2018-05-09T04:40:46.951Z,13.18
2018-05-09T04:43:16.466Z,13.20
2018-05-09T04:45:45.991Z,13.25
2018-05-09T04:48:15.561Z,13.85
2018-05-09T04:50:45.237Z,14.78
2018-05-09T04:53:14.796Z,15.17
2018-05-09T04:55:44.468Z,16.18
2018-05-09T04:58:14.066Z,17.65
2018-05-09T05:00:43.601Z,19.25
2018-05-09T05:03:12.896Z,20.29
2018-05-09T05:05:42.835Z,21.47
2018-05-09T05:08:13.176Z,22.36
2018-05-09T05:10:43.276Z,23.42
2018-05-09T05:13:13.673Z,23.90
2018-05-09T05:15:43.772Z,23.84
2018-05-09T05:18:14.175Z,24.40
2018-05-09T05:20:44.294Z,24.84
2018-05-09T05:23:14.775Z,25.23
2018-05-09T05:25:44.699Z,25.21
2018-05-09T05:28:14.812Z,25.69
2018-05-09T05:30:44.910Z,25.66
2018-05-09T05:33:14.982Z,26.13
2018-05-09T05:35:45.149Z,26.50
2018-05-09T05:38:14.945Z,26.80
2018-05-09T05:40:44.787Z,26.95
2018-05-09T05:43:14.971Z,27.17
2018-05-09T05:45:44.816Z,27.33
2018-05-09T05:48:14.643Z,27.70
2018-05-09T05:50:44.756Z,27.32
2018-05-09T05:53:14.574Z,27.25
2018-05-09T05:55:44.653Z,27.24
2018-05-09T05:58:15.487Z,27.23
2018-05-09T06:00:45.961Z,26.49
2018-05-09T06:03:16.491Z,25.56
2018-05-09T06:05:46.576Z,24.95
2018-05-09T06:08:16.685Z,24.27
2018-05-09T06:10:47.193Z,23.30
2018-05-09T06:13:16.940Z,22.29
2018-05-09T06:15:47.038Z,22.15
2018-05-09T06:18:17.136Z,21.70
2018-05-09T06:20:48.477Z,21.40
2018-05-09T06:23:18.742Z,21.19
2018-05-09T06:25:49.526Z,21.10
2018-05-09T06:28:19.592Z,21.13
2018-05-09T06:30:50.375Z,20.96
2018-05-09T06:33:20.888Z,21.02
2018-05-09T06:35:51.020Z,21.15
2018-05-09T06:38:21.123Z,21.24
2018-05-09T06:40:51.201Z,21.42
2018-05-09T06:43:21.675Z,20.68
2018-05-09T06:45:51.590Z,19.74
2018-05-09T06:48:21.548Z,19.50
2018-05-09T06:50:51.067Z,19.59
2018-05-09T06:53:20.585Z,19.78
2018-05-09T06:55:50.307Z,20.18
2018-05-09T06:58:20.272Z,20.34
2018-05-09T07:00:50.283Z,20.91
2018-05-09T07:03:20.139Z,21.44
2018-05-09T07:05:50.615Z,21.92
2018-05-09T07:08:20.684Z,21.88
2018-05-09T07:10:51.228Z,21.47
2018-05-09T07:13:21.375Z,21.23
2018-05-09T07:15:54.565Z,21.38
2018-05-09T07:18:24.683Z,21.51
2018-05-09T07:20:54.783Z,21.47
2018-05-09T07:23:24.883Z,21.81
2018-05-09T07:25:55.662Z,22.07
2018-05-09T07:28:25.615Z,21.76
2018-05-09T07:30:56.145Z,21.06
2018-05-09T07:33:26.257Z,21.29
2018-05-09T07:35:56.409Z,21.29
2018-05-09T07:38:27.259Z,20.97
2018-05-09T07:40:57.315Z,21.11
2018-05-09T07:43:27.411Z,20.60
2018-05-09T07:45:56.938Z,20.75
2018-05-09T07:48:27.101Z,21.12
2018-05-09T07:50:56.652Z,21.35
2018-05-09T07:53:26.799Z,21.20
2018-05-09T07:55:56.391Z,21.05
2018-05-09T07:58:26.281Z,21.12
2018-05-09T08:00:55.799Z,20.69
2018-05-09T08:03:25.323Z,20.45
2018-05-09T08:05:55.327Z,20.80
2018-05-09T08:08:25.029Z,20.98
2018-05-09T08:10:54.786Z,20.05
2018-05-09T08:13:24.600Z,20.03
2018-05-09T08:15:54.333Z,19.57
2018-05-09T08:18:23.892Z,20.03
2018-05-09T08:20:53.618Z,20.11
2018-05-09T08:23:23.140Z,20.29
2018-05-09T08:25:52.640Z,20.12
2018-05-09T08:28:22.420Z,20.20
2018-05-09T08:30:52.156Z,20.51
2018-05-09T08:33:21.688Z,20.64
2018-05-09T08:35:51.227Z,21.32
2018-05-09T08:38:20.758Z,21.65
2018-05-09T08:40:50.864Z,22.23
2018-05-09T08:43:21.028Z,22.09
2018-05-09T08:45:51.293Z,21.86
2018-05-09T08:48:21.374Z,21.60
2018-05-09T08:50:51.461Z,21.08
2018-05-09T08:53:21.422Z,21.11
2018-05-09T08:55:50.980Z,20.92
2018-05-09T08:58:21.100Z,21.11
2018-05-09T09:00:51.203Z,21.32
2018-05-09T09:03:21.283Z,21.17
2018-05-09T09:05:51.845Z,21.24
2018-05-09T09:08:21.366Z,21.02
2018-05-09T09:10:51.823Z,21.20
2018-05-09T09:13:22.107Z,21.44
2018-05-09T09:15:52.204Z,21.91
2018-05-09T09:18:22.784Z,21.86
2018-05-09T09:20:52.981Z,21.66
2018-05-09T09:23:23.203Z,21.59
2018-05-09T09:25:53.322Z,21.17
2018-05-09T09:28:24.284Z,21.71
2018-05-09T09:30:54.393Z,22.38
2018-05-09T09:33:24.474Z,23.04
2018-05-09T09:35:54.946Z,23.58
2018-05-09T09:38:25.092Z,23.01
2018-05-09T09:40:55.617Z,22.84
2018-05-09T09:43:25.732Z,22.66
2018-05-09T09:45:55.873Z,22.96
2018-05-09T09:48:26.086Z,23.55
2018-05-09T09:50:57.427Z,23.86
2018-05-09T09:53:27.508Z,23.77
2018-05-09T09:55:57.645Z,24.15
2018-05-09T09:58:27.791Z,24.42
2018-05-09T10:00:57.890Z,24.51
2018-05-09T10:03:27.964Z,25.11
2018-05-09T10:05:58.465Z,24.85
2018-05-09T10:08:28.573Z,24.70
2018-05-09T10:10:58.859Z,25.03
2018-05-09T10:13:28.986Z,24.60
2018-05-09T10:15:59.147Z,25.28
2018-05-09T10:18:29.374Z,25.19
2018-05-09T10:20:59.451Z,24.07
2018-05-09T10:23:29.531Z,23.72
2018-05-09T10:26:00.306Z,23.53
2018-05-09T10:28:30.641Z,23.75
2018-05-09T10:31:00.718Z,24.37
2018-05-09T10:33:31.211Z,24.28
2018-05-09T10:36:01.327Z,24.04
2018-05-09T10:38:31.419Z,23.98
2018-05-09T10:41:01.232Z,23.80
2018-05-09T10:43:31.416Z,24.14
2018-05-09T10:46:01.935Z,24.63
2018-05-09T10:48:31.795Z,25.15
2018-05-09T10:51:01.676Z,25.52
2018-05-09T10:53:31.771Z,24.34
2018-05-09T10:56:01.835Z,24.71
2018-05-09T10:58:31.912Z,25.28
2018-05-09T11:01:01.967Z,25.81
2018-05-09T11:03:32.974Z,25.75
2018-05-09T11:06:03.134Z,26.09
2018-05-09T11:08:33.318Z,26.17
2018-05-09T11:11:03.168Z,25.36
2018-05-09T11:13:33.068Z,25.07
2018-05-09T11:16:03.584Z,25.12
2018-05-09T11:18:33.843Z,25.24
2018-05-09T11:21:04.500Z,24.80
2018-05-09T11:23:34.578Z,24.94
2018-05-09T11:26:04.456Z,25.36
2018-05-09T11:28:34.598Z,25.19
2018-05-09T11:31:05.132Z,24.83
2018-05-09T11:33:35.604Z,23.87
2018-05-09T11:36:05.704Z,23.93
2018-05-09T11:38:35.818Z,24.35
2018-05-09T11:41:06.211Z,24.32
2018-05-09T11:43:36.453Z,23.63
2018-05-09T11:46:06.543Z,23.32
2018-05-09T11:48:36.707Z,23.98
2018-05-09T11:51:06.829Z,23.82
2018-05-09T11:53:36.927Z,23.01
2018-05-09T11:56:07.398Z,22.73
2018-05-09T11:58:37.470Z,22.79
2018-05-09T12:01:07.955Z,22.71
2018-05-09T12:03:38.046Z,22.88
2018-05-09T12:06:08.125Z,22.62
2018-05-09T12:08:38.503Z,22.89
2018-05-09T12:11:08.373Z,23.25
2018-05-09T12:13:38.851Z,23.37
2018-05-09T12:16:08.705Z,23.63
2018-05-09T12:18:38.585Z,23.74
2018-05-09T12:21:08.716Z,23.69
2018-05-09T12:23:38.825Z,23.43
2018-05-09T12:26:08.905Z,23.18
2018-05-09T12:28:39.402Z,23.25
2018-05-09T12:31:09.353Z,23.71
2018-05-09T12:33:39.426Z,23.58
2018-05-09T12:36:09.495Z,23.93
2018-05-09T12:38:39.777Z,24.23
2018-05-09T12:41:09.613Z,24.11
2018-05-09T12:43:40.112Z,24.10
2018-05-09T12:46:10.238Z,24.23
2018-05-09T12:48:40.377Z,23.83
2018-05-09T12:51:10.581Z,24.34
2018-05-09T12:53:40.668Z,24.34
2018-05-09T12:56:10.646Z,24.50
2018-05-09T12:58:40.835Z,23.59
2018-05-09T13:01:11.345Z,23.82
2018-05-09T13:03:41.455Z,24.22
2018-05-09T13:06:11.567Z,23.75
2018-05-09T13:08:41.991Z,23.64
2018-05-09T13:11:12.069Z,23.85
2018-05-09T13:13:42.583Z,23.63
2018-05-09T13:16:12.665Z,23.48
2018-05-09T13:18:42.898Z,23.63
2018-05-09T13:21:12.975Z,23.70
2018-05-09T13:23:43.529Z,24.25
2018-05-09T13:26:14.235Z,24.79
2018-05-09T13:28:44.501Z,24.47
2018-05-09T13:31:14.593Z,23.87
2018-05-09T13:33:44.677Z,23.82
2018-05-09T13:36:14.805Z,23.67
2018-05-09T13:38:44.907Z,23.78
2018-05-09T13:41:14.999Z,24.00
2018-05-09T13:43:45.101Z,23.84
2018-05-09T13:46:15.175Z,24.14
2018-05-09T13:48:45.489Z,23.91
2018-05-09T13:51:15.576Z,23.81
2018-05-09T13:53:45.686Z,23.76
2018-05-09T13:56:15.903Z,23.68
2018-05-09T13:58:45.992Z,23.64
2018-05-09T14:01:16.467Z,24.01
2018-05-09T14:03:46.555Z,24.04
2018-05-09T14:06:16.809Z,23.58
2018-05-09T14:08:46.895Z,23.59
2018-05-09T14:11:17.361Z,23.80
2018-05-09T14:13:47.449Z,23.73
2018-05-09T14:16:17.515Z,23.99
2018-05-09T14:18:47.367Z,23.69
2018-05-09T14:21:17.867Z,23.97
2018-05-09T14:23:47.941Z,24.18
2018-05-09T14:26:17.995Z,23.98
2018-05-09T14:28:48.057Z,23.87
2018-05-09T14:31:18.517Z,23.66
2018-05-09T14:33:48.607Z,23.22
2018-05-09T14:36:19.088Z,23.36
2018-05-09T14:38:49.198Z,23.75
2018-05-09T14:41:19.289Z,24.03
2018-05-09T14:43:49.382Z,24.14
2018-05-09T14:46:19.833Z,24.45
2018-05-09T14:48:49.924Z,24.94
2018-05-09T14:51:20.437Z,25.27
2018-05-09T14:53:50.307Z,25.11
2018-05-09T14:56:20.483Z,24.77
2018-05-09T14:58:50.615Z,24.68
2018-05-09T15:01:21.072Z,24.84
2018-05-09T15:03:50.927Z,25.07
2018-05-09T15:06:21.011Z,25.02
2018-05-09T15:08:51.145Z,24.98
2018-05-09T15:11:21.281Z,24.42
2018-05-09T15:13:51.383Z,24.38
2018-05-09T15:16:21.462Z,23.89
2018-05-09T15:18:51.932Z,23.63
2018-05-09T15:21:22.124Z,23.22
2018-05-09T15:23:52.209Z,23.26
2018-05-09T15:26:22.765Z,22.72
2018-05-09T15:28:53.015Z,22.40
2018-05-09T15:31:23.347Z,22.24
2018-05-09T15:33:53.424Z,21.77
2018-05-09T15:36:23.900Z,21.55
2018-05-09T15:38:54.089Z,21.55
2018-05-09T15:41:24.680Z,21.66
2018-05-09T15:43:54.837Z,21.34
2018-05-09T15:46:24.963Z,21.22
2018-05-09T15:48:55.075Z,21.32
2018-05-09T15:51:25.566Z,21.26
2018-05-09T15:53:55.685Z,21.21
2018-05-09T15:56:25.799Z,21.13
2018-05-09T15:58:55.917Z,21.06
2018-05-09T16:01:26.895Z,20.95
2018-05-09T16:03:57.399Z,20.73
2018-05-09T16:06:27.475Z,20.70
2018-05-09T16:08:57.568Z,20.51
2018-05-09T16:11:28.080Z,20.59
2018-05-09T16:13:58.204Z,20.71
2018-05-09T16:16:28.659Z,20.78
2018-05-09T16:25:47.308Z,21.04
2018-05-09T16:28:18.786Z,21.15
2018-05-09T16:30:48.912Z,21.24
2018-05-09T16:33:19.416Z,21.40
2018-05-09T16:35:50.116Z,21.40
2018-05-09T16:38:20.606Z,21.40
2018-05-09T16:40:51.110Z,21.43
2018-05-09T16:43:22.454Z,21.42
2018-05-09T16:45:52.964Z,21.23
2018-05-09T16:48:23.035Z,21.32
2018-05-09T16:50:53.496Z,21.34
2018-05-09T16:53:23.600Z,21.31
2018-05-09T16:55:54.241Z,21.21
2018-05-09T16:58:24.345Z,21.08
2018-05-09T17:00:55.547Z,21.07
2018-05-09T17:03:25.701Z,21.02
2018-05-09T17:05:55.943Z,20.80
2018-05-09T17:08:26.809Z,20.59
2018-05-09T17:10:57.011Z,20.46
2018-05-09T17:13:27.546Z,20.36
2018-05-09T17:15:57.481Z,20.24
2018-05-09T17:18:27.044Z,20.07
2018-05-09T17:20:56.785Z,20.07
2018-05-09T17:23:26.734Z,20.17
2018-05-09T17:25:56.276Z,20.23
2018-05-09T17:28:25.814Z,20.32
2018-05-09T17:30:56.012Z,20.22
2018-05-09T17:33:25.535Z,20.12
2018-05-09T17:35:55.802Z,20.06
2018-05-09T17:38:25.328Z,20.13
2018-05-09T17:40:54.879Z,20.12
2018-05-09T17:43:25.084Z,20.07
2018-05-09T17:45:55.044Z,20.05
2018-05-09T17:48:24.651Z,19.88
2018-05-09T17:50:55.822Z,19.85
2018-05-09T17:53:25.359Z,19.81
2018-05-09T17:55:54.920Z,19.71
2018-05-09T17:58:24.520Z,19.54
2018-05-09T18:00:54.041Z,19.47
2018-05-09T18:03:23.940Z,19.38
2018-05-09T18:05:53.892Z,19.35
2018-05-09T18:08:24.179Z,19.29
2018-05-09T18:10:53.714Z,19.25
2018-05-09T18:13:23.259Z,19.19
2018-05-09T18:15:53.193Z,19.20
2018-05-09T18:18:23.423Z,19.08
2018-05-09T18:20:53.564Z,18.86
2018-05-09T18:23:23.924Z,18.80
2018-05-09T18:25:53.499Z,18.66
2018-05-09T18:28:23.033Z,18.37
2018-05-09T18:30:52.573Z,18.24
2018-05-09T18:33:22.503Z,18.13
2018-05-09T18:35:52.096Z,18.08
2018-05-09T18:38:22.247Z,18.03
2018-05-09T18:40:51.777Z,17.95
2018-05-09T18:43:21.283Z,17.96
2018-05-09T18:45:50.824Z,17.89
2018-05-09T18:48:21.553Z,17.80
2018-05-09T18:50:51.481Z,17.77
2018-05-09T18:53:21.449Z,17.78
2018-05-09T18:55:51.187Z,17.74
2018-05-09T18:58:20.713Z,17.71
2018-05-09T19:00:50.401Z,17.71
2018-05-09T19:03:19.982Z,17.67
2018-05-09T19:05:49.556Z,17.67
2018-05-09T19:08:19.309Z,17.63
2018-05-09T19:10:48.875Z,17.57
2018-05-09T19:13:18.419Z,17.57
2018-05-09T19:15:48.303Z,17.47
2018-05-09T19:18:19.104Z,17.48
2018-05-09T19:20:48.553Z,17.45
2018-05-09T19:23:18.167Z,17.45
2018-05-09T19:25:48.047Z,17.32
2018-05-09T19:28:17.669Z,17.29
2018-05-09T19:30:46.906Z,17.15
2018-05-09T19:33:16.474Z,17.13
2018-05-09T19:35:46.015Z,17.13
2018-05-09T19:38:15.554Z,16.99
2018-05-09T19:40:45.506Z,16.92
2018-05-09T19:43:15.631Z,16.91
2018-05-09T19:45:45.234Z,16.83
2018-05-09T19:48:14.580Z,16.79
2018-05-09T19:50:43.918Z,16.78
2018-05-09T19:53:13.951Z,16.82
2018-05-09T19:55:43.623Z,16.92
2018-05-09T19:58:13.598Z,16.89
2018-05-09T20:00:43.137Z,16.82
2018-05-09T20:03:12.670Z,16.86
2018-05-09T20:05:42.625Z,16.80
2018-05-09T20:08:12.265Z,16.86
2018-05-09T20:10:41.846Z,16.70
2018-05-09T20:13:11.819Z,16.52
2018-05-09T20:15:41.856Z,16.40
2018-05-09T20:18:11.754Z,16.21
2018-05-09T20:20:41.784Z,16.15
2018-05-09T20:23:11.336Z,16.17
2018-05-09T20:25:40.880Z,16.24
2018-05-09T20:28:10.900Z,16.26
2018-05-09T20:30:46.233Z,16.27
2018-05-09T20:33:16.255Z,16.32
2018-05-09T20:35:46.203Z,16.40
2018-05-09T20:38:15.749Z,16.46
2018-05-09T20:40:45.279Z,16.28
2018-05-09T20:43:15.230Z,16.34
2018-05-09T20:45:44.747Z,16.22
2018-05-09T20:48:14.291Z,16.33
2018-05-09T20:50:43.834Z,16.41
2018-05-09T20:53:13.448Z,16.50
2018-05-09T20:55:43.175Z,16.49
2018-05-09T20:58:12.697Z,16.45
2018-05-09T21:00:42.290Z,16.52
2018-05-09T21:03:11.513Z,16.50
2018-05-09T21:05:40.721Z,16.46
2018-05-09T21:08:10.275Z,16.52
2018-05-09T21:10:39.823Z,16.40
2018-05-09T21:13:09.442Z,16.18
2018-05-09T21:15:39.057Z,16.00
2018-05-09T21:18:09.328Z,15.75
2018-05-09T21:20:47.357Z,15.58
2018-05-09T21:23:25.261Z,15.34
2018-05-09T21:25:55.993Z,15.32
2018-05-09T21:28:25.609Z,15.67
2018-05-09T21:30:55.299Z,15.67
2018-05-09T21:33:24.903Z,15.75
2018-05-09T21:35:56.212Z,15.85
2018-05-09T21:38:25.850Z,15.79
2018-05-09T21:40:55.920Z,15.91
2018-05-09T21:43:26.326Z,15.82
2018-05-09T21:45:55.563Z,15.88
2018-05-09T21:48:25.500Z,15.90
2018-05-09T21:50:55.404Z,15.87
2018-05-09T21:53:25.377Z,15.89
2018-05-09T21:55:55.017Z,15.92
2018-05-09T21:58:25.058Z,15.81
2018-05-09T22:00:54.834Z,15.73
2018-05-09T22:03:24.370Z,15.59
2018-05-09T22:05:54.304Z,15.57
2018-05-09T22:08:23.856Z,15.57
2018-05-09T22:10:53.402Z,15.48
2018-05-09T22:13:22.894Z,15.61
2018-05-09T22:15:52.608Z,15.62
2018-05-09T22:18:22.540Z,15.64
2018-05-09T22:20:52.070Z,15.75
2018-05-09T22:23:21.630Z,15.71
2018-05-09T22:25:51.544Z,15.71
2018-05-09T22:28:21.474Z,15.62
2018-05-09T22:30:51.522Z,15.66
2018-05-09T22:33:21.163Z,15.62
2018-05-09T22:35:51.026Z,15.64
2018-05-09T22:38:20.598Z,15.57
2018-05-09T22:40:50.306Z,15.56
2018-05-09T22:43:19.914Z,15.54
2018-05-09T22:45:49.480Z,15.38
2018-05-09T22:48:19.018Z,15.33
2018-05-09T22:50:48.532Z,15.28
2018-05-09T22:53:18.072Z,15.33
2018-05-09T22:55:47.626Z,15.30
2018-05-09T22:58:17.172Z,15.30
2018-05-09T23:00:47.098Z,15.35
2018-05-09T23:03:16.791Z,15.30
2018-05-09T23:05:46.762Z,15.34
2018-05-09T23:08:16.337Z,15.23
2018-05-09T23:10:45.874Z,15.12
2018-05-09T23:13:15.379Z,15.02
2018-05-09T23:15:44.924Z,15.01
2018-05-09T23:18:14.554Z,15.01
2018-05-09T23:20:44.504Z,15.00
2018-05-09T23:23:14.024Z,14.88
2018-05-09T23:25:43.556Z,14.88
2018-05-09T23:28:13.090Z,14.83
2018-05-09T23:30:43.028Z,14.75
2018-05-09T23:33:12.594Z,14.76
2018-05-09T23:35:42.513Z,14.76
2018-05-09T23:38:12.497Z,14.74
2018-05-09T23:40:42.107Z,14.67
2018-05-09T23:43:11.734Z,14.60
2018-05-09T23:45:41.936Z,14.67
2018-05-09T23:48:11.250Z,14.61
2018-05-09T23:50:40.572Z,14.64
2018-05-09T23:53:10.210Z,14.63
2018-05-09T23:55:39.787Z,14.60
2018-05-09T23:58:09.550Z,14.65
